La Fayette, Illinois
Current Conditions -  °F | °C
As of 5:15 AM on Friday 28 Nov 2014 (Local Time) from KGBG Reporting Station
Overcast Overcast  
Wind Chill: -14°   Ceiling: 12000
Heat Index: -9°   Visibility: 10mi
Dew Point: -12°   Wind: 8mph
Humidity: 76%   Direction: 130°SE
Pressure: 30.24"   Gusts: NA
Location:  41.11°N, 89.97°W
Report Text: KGBG 281115Z AUTO 13007KT 10SM OVC120 M08/M12 A3024 RMK AO2 T10851121
Loading
Personal Weather Stations






























Interactive Weather Map New forecast layout! Learn more

10-Day Weather Forecast

Advertisements
Track Severe Weather on mobile